sensor_id;sensor_type;location;lat;lon;timestamp;P1;durP1;ratioP1;P2;durP2;ratioP2
11305;SDS011;5708;50.660;6.778;2023-06-10T00:00:45;11.48;;;8.80;;
11305;SDS011;5708;50.660;6.778;2023-06-10T00:03:11;15.40;;;7.60;;
11305;SDS011;5708;50.660;6.778;2023-06-10T00:05:37;11.43;;;8.30;;
11305;SDS011;5708;50.660;6.778;2023-06-10T00:08:03;10.43;;;7.90;;
11305;SDS011;5708;50.660;6.778;2023-06-10T00:10:35;9.95;;;7.75;;
11305;SDS011;5708;50.660;6.778;2023-06-10T00:13:05;11.07;;;8.43;;
11305;SDS011;5708;50.660;6.778;2023-06-10T00:15:33;11.13;;;8.55;;
11305;SDS011;5708;50.660;6.778;2023-06-10T00:18:00;12.35;;;8.70;;
11305;SDS011;5708;50.660;6.778;2023-06-10T00:20:26;10.80;;;8.85;;
11305;SDS011;5708;50.660;6.778;2023-06-10T00:22:52;12.40;;;9.40;;
11305;SDS011;5708;50.660;6.778;2023-06-10T00:25:18;12.60;;;8.95;;
11305;SDS011;5708;50.660;6.778;2023-06-10T00:27:44;12.45;;;8.43;;
11305;SDS011;5708;50.660;6.778;2023-06-10T00:30:09;12.40;;;8.50;;
11305;SDS011;5708;50.660;6.778;2023-06-10T00:32:35;10.98;;;8.88;;
11305;SDS011;5708;50.660;6.778;2023-06-10T00:35:01;11.48;;;8.63;;
11305;SDS011;5708;50.660;6.778;2023-06-10T00:37:30;10.75;;;8.60;;
11305;SDS011;5708;50.660;6.778;2023-06-10T00:39:57;10.40;;;8.45;;
11305;SDS011;5708;50.660;6.778;2023-06-10T00:42:22;10.40;;;8.60;;
11305;SDS011;5708;50.660;6.778;2023-06-10T00:44:49;12.18;;;9.63;;
11305;SDS011;5708;50.660;6.778;2023-06-10T00:47:15;11.50;;;8.82;;
11305;SDS011;5708;50.660;6.778;2023-06-10T00:49:41;11.43;;;9.07;;
11305;SDS011;5708;50.660;6.778;2023-06-10T00:52:07;13.30;;;9.43;;
11305;SDS011;5708;50.660;6.778;2023-06-10T00:54:33;14.27;;;8.77;;
11305;SDS011;5708;50.660;6.778;2023-06-10T00:57:00;13.40;;;9.65;;
11305;SDS011;5708;50.660;6.778;2023-06-10T00:59:27;11.07;;;9.23;;
11305;SDS011;5708;50.660;6.778;2023-06-10T01:01:53;12.55;;;9.68;;
11305;SDS011;5708;50.660;6.778;2023-06-10T01:04:20;13.02;;;9.70;;
11305;SDS011;5708;50.660;6.778;2023-06-10T01:12:23;14.32;;;9.95;;
11305;SDS011;5708;50.660;6.778;2023-06-10T01:15:13;11.77;;;9.57;;
11305;SDS011;5708;50.660;6.778;2023-06-10T01:17:56;12.02;;;9.18;;
11305;SDS011;5708;50.660;6.778;2023-06-10T01:20:29;11.70;;;9.50;;
11305;SDS011;5708;50.660;6.778;2023-06-10T01:22:58;12.45;;;10.10;;
11305;SDS011;5708;50.660;6.778;2023-06-10T01:25:24;14.65;;;9.85;;
11305;SDS011;5708;50.660;6.778;2023-06-10T01:33:37;10.18;;;9.02;;
11305;SDS011;5708;50.660;6.778;2023-06-10T01:36:08;11.77;;;10.25;;
11305;SDS011;5708;50.660;6.778;2023-06-10T01:38:39;12.63;;;10.13;;
11305;SDS011;5708;50.660;6.778;2023-06-10T01:41:06;10.88;;;9.68;;
11305;SDS011;5708;50.660;6.778;2023-06-10T01:43:32;11.65;;;10.00;;
11305;SDS011;5708;50.660;6.778;2023-06-10T01:45:58;15.80;;;10.07;;
11305;SDS011;5708;50.660;6.778;2023-06-10T01:48:24;13.52;;;9.95;;
11305;SDS011;5708;50.660;6.778;2023-06-10T01:50:49;13.02;;;10.27;;
11305;SDS011;5708;50.660;6.778;2023-06-10T01:53:14;14.88;;;10.93;;
11305;SDS011;5708;50.660;6.778;2023-06-10T01:55:40;14.15;;;10.30;;
11305;SDS011;5708;50.660;6.778;2023-06-10T01:58:05;13.50;;;10.23;;
11305;SDS011;5708;50.660;6.778;2023-06-10T02:00:31;13.27;;;10.18;;
11305;SDS011;5708;50.660;6.778;2023-06-10T02:02:56;13.15;;;9.70;;
11305;SDS011;5708;50.660;6.778;2023-06-10T02:05:21;13.73;;;10.13;;
11305;SDS011;5708;50.660;6.778;2023-06-10T02:07:47;13.75;;;10.25;;
11305;SDS011;5708;50.660;6.778;2023-06-10T02:10:13;11.65;;;9.63;;
11305;SDS011;5708;50.660;6.778;2023-06-10T02:12:38;13.40;;;10.05;;
11305;SDS011;5708;50.660;6.778;2023-06-10T02:15:04;11.82;;;9.73;;
11305;SDS011;5708;50.660;6.778;2023-06-10T02:17:29;11.57;;;9.40;;
11305;SDS011;5708;50.660;6.778;2023-06-10T02:19:55;14.27;;;10.02;;
11305;SDS011;5708;50.660;6.778;2023-06-10T02:22:22;12.68;;;9.32;;
11305;SDS011;5708;50.660;6.778;2023-06-10T02:24:49;13.85;;;10.45;;
11305;SDS011;5708;50.660;6.778;2023-06-10T02:27:17;14.65;;;10.18;;
11305;SDS011;5708;50.660;6.778;2023-06-10T02:29:43;13.95;;;10.30;;
11305;SDS011;5708;50.660;6.778;2023-06-10T02:32:08;15.73;;;10.05;;
11305;SDS011;5708;50.660;6.778;2023-06-10T02:34:34;13.05;;;9.40;;
11305;SDS011;5708;50.660;6.778;2023-06-10T02:36:59;14.13;;;10.27;;
11305;SDS011;5708;50.660;6.778;2023-06-10T02:39:26;13.18;;;10.48;;
11305;SDS011;5708;50.660;6.778;2023-06-10T02:41:51;13.30;;;9.73;;
11305;SDS011;5708;50.660;6.778;2023-06-10T02:44:20;12.27;;;9.85;;
11305;SDS011;5708;50.660;6.778;2023-06-10T02:46:45;14.45;;;10.30;;
11305;SDS011;5708;50.660;6.778;2023-06-10T02:49:11;15.10;;;10.07;;
11305;SDS011;5708;50.660;6.778;2023-06-10T02:51:37;12.90;;;9.80;;
11305;SDS011;5708;50.660;6.778;2023-06-10T02:54:02;14.45;;;9.93;;
11305;SDS011;5708;50.660;6.778;2023-06-10T02:56:28;12.43;;;10.07;;
11305;SDS011;5708;50.660;6.778;2023-06-10T02:58:53;13.88;;;9.77;;
11305;SDS011;5708;50.660;6.778;2023-06-10T03:01:19;13.18;;;10.25;;
11305;SDS011;5708;50.660;6.778;2023-06-10T03:03:45;16.75;;;10.02;;
11305;SDS011;5708;50.660;6.778;2023-06-10T03:06:11;13.43;;;10.35;;
11305;SDS011;5708;50.660;6.778;2023-06-10T03:08:37;13.15;;;10.60;;
11305;SDS011;5708;50.660;6.778;2023-06-10T03:11:03;13.38;;;10.27;;
11305;SDS011;5708;50.660;6.778;2023-06-10T03:13:28;12.35;;;9.75;;
11305;SDS011;5708;50.660;6.778;2023-06-10T03:15:54;14.88;;;10.13;;
11305;SDS011;5708;50.660;6.778;2023-06-10T03:18:20;12.73;;;9.80;;
11305;SDS011;5708;50.660;6.778;2023-06-10T03:20:45;13.18;;;10.13;;
11305;SDS011;5708;50.660;6.778;2023-06-10T03:23:10;12.13;;;10.02;;
11305;SDS011;5708;50.660;6.778;2023-06-10T03:25:36;12.23;;;9.90;;
11305;SDS011;5708;50.660;6.778;2023-06-10T03:28:01;13.65;;;10.27;;
11305;SDS011;5708;50.660;6.778;2023-06-10T03:30:27;14.40;;;9.40;;
11305;SDS011;5708;50.660;6.778;2023-06-10T03:32:56;11.07;;;9.75;;
11305;SDS011;5708;50.660;6.778;2023-06-10T03:35:21;12.95;;;9.90;;
11305;SDS011;5708;50.660;6.778;2023-06-10T03:37:47;12.57;;;9.40;;
11305;SDS011;5708;50.660;6.778;2023-06-10T03:40:12;11.30;;;9.50;;
11305;SDS011;5708;50.660;6.778;2023-06-10T03:42:38;14.00;;;10.00;;
11305;SDS011;5708;50.660;6.778;2023-06-10T03:45:03;12.57;;;9.93;;
11305;SDS011;5708;50.660;6.778;2023-06-10T03:47:35;12.45;;;9.43;;
11305;SDS011;5708;50.660;6.778;2023-06-10T03:50:02;12.45;;;10.02;;
11305;SDS011;5708;50.660;6.778;2023-06-10T03:52:31;14.13;;;10.57;;
11305;SDS011;5708;50.660;6.778;2023-06-10T03:54:56;15.57;;;10.40;;
11305;SDS011;5708;50.660;6.778;2023-06-10T03:57:22;14.55;;;10.85;;
11305;SDS011;5708;50.660;6.778;2023-06-10T03:59:47;14.82;;;10.20;;
11305;SDS011;5708;50.660;6.778;2023-06-10T04:02:12;13.10;;;10.07;;
11305;SDS011;5708;50.660;6.778;2023-06-10T04:04:38;13.65;;;10.52;;
11305;SDS011;5708;50.660;6.778;2023-06-10T04:07:06;14.25;;;10.27;;
11305;SDS011;5708;50.660;6.778;2023-06-10T04:09:33;17.20;;;10.95;;
11305;SDS011;5708;50.660;6.778;2023-06-10T04:11:58;23.50;;;11.88;;
11305;SDS011;5708;50.660;6.778;2023-06-10T04:14:24;17.13;;;10.80;;
11305;SDS011;5708;50.660;6.778;2023-06-10T04:16:49;13.90;;;10.35;;
11305;SDS011;5708;50.660;6.778;2023-06-10T04:19:15;16.48;;;10.88;;
11305;SDS011;5708;50.660;6.778;2023-06-10T04:21:41;14.68;;;10.45;;
11305;SDS011;5708;50.660;6.778;2023-06-10T04:24:07;13.60;;;10.68;;
11305;SDS011;5708;50.660;6.778;2023-06-10T04:26:32;18.05;;;11.10;;
11305;SDS011;5708;50.660;6.778;2023-06-10T04:28:58;13.57;;;10.27;;
11305;SDS011;5708;50.660;6.778;2023-06-10T04:31:24;16.48;;;10.55;;
11305;SDS011;5708;50.660;6.778;2023-06-10T04:33:49;13.15;;;10.07;;
11305;SDS011;5708;50.660;6.778;2023-06-10T04:36:15;13.70;;;9.48;;
11305;SDS011;5708;50.660;6.778;2023-06-10T04:38:40;13.07;;;9.93;;
11305;SDS011;5708;50.660;6.778;2023-06-10T04:41:06;13.60;;;9.63;;
11305;SDS011;5708;50.660;6.778;2023-06-10T04:43:31;12.07;;;9.80;;
11305;SDS011;5708;50.660;6.778;2023-06-10T04:45:57;12.65;;;9.10;;
11305;SDS011;5708;50.660;6.778;2023-06-10T04:48:22;12.68;;;9.05;;
11305;SDS011;5708;50.660;6.778;2023-06-10T04:50:49;16.17;;;9.27;;
11305;SDS011;5708;50.660;6.778;2023-06-10T04:53:15;14.73;;;9.38;;
11305;SDS011;5708;50.660;6.778;2023-06-10T04:55:41;14.00;;;10.02;;
11305;SDS011;5708;50.660;6.778;2023-06-10T04:58:07;16.33;;;10.07;;
11305;SDS011;5708;50.660;6.778;2023-06-10T05:00:32;14.68;;;10.50;;
11305;SDS011;5708;50.660;6.778;2023-06-10T05:02:57;13.38;;;9.57;;
11305;SDS011;5708;50.660;6.778;2023-06-10T05:05:23;13.23;;;9.50;;
11305;SDS011;5708;50.660;6.778;2023-06-10T05:07:48;14.93;;;9.07;;
11305;SDS011;5708;50.660;6.778;2023-06-10T05:10:14;13.10;;;9.07;;
11305;SDS011;5708;50.660;6.778;2023-06-10T05:12:39;15.95;;;8.82;;
11305;SDS011;5708;50.660;6.778;2023-06-10T05:15:06;12.15;;;8.90;;
11305;SDS011;5708;50.660;6.778;2023-06-10T05:17:32;13.30;;;8.93;;
11305;SDS011;5708;50.660;6.778;2023-06-10T05:19:57;16.35;;;9.18;;
11305;SDS011;5708;50.660;6.778;2023-06-10T05:22:23;12.32;;;9.18;;
11305;SDS011;5708;50.660;6.778;2023-06-10T05:24:52;12.27;;;9.05;;
11305;SDS011;5708;50.660;6.778;2023-06-10T05:27:18;13.18;;;9.45;;
11305;SDS011;5708;50.660;6.778;2023-06-10T05:29:43;12.43;;;9.30;;
11305;SDS011;5708;50.660;6.778;2023-06-10T05:32:08;12.45;;;9.48;;
11305;SDS011;5708;50.660;6.778;2023-06-10T05:34:34;12.40;;;9.45;;
11305;SDS011;5708;50.660;6.778;2023-06-10T05:36:59;11.48;;;9.60;;
11305;SDS011;5708;50.660;6.778;2023-06-10T05:39:25;14.43;;;10.07;;
11305;SDS011;5708;50.660;6.778;2023-06-10T05:41:50;16.55;;;9.60;;
11305;SDS011;5708;50.660;6.778;2023-06-10T05:44:16;14.55;;;9.23;;
11305;SDS011;5708;50.660;6.778;2023-06-10T05:46:41;14.85;;;10.20;;
11305;SDS011;5708;50.660;6.778;2023-06-10T05:49:06;12.35;;;9.80;;
11305;SDS011;5708;50.660;6.778;2023-06-10T05:51:32;12.18;;;9.10;;
11305;SDS011;5708;50.660;6.778;2023-06-10T05:53:57;12.73;;;9.38;;
11305;SDS011;5708;50.660;6.778;2023-06-10T05:56:23;14.35;;;9.85;;
11305;SDS011;5708;50.660;6.778;2023-06-10T05:58:48;12.93;;;9.25;;
11305;SDS011;5708;50.660;6.778;2023-06-10T06:01:14;12.25;;;8.52;;
11305;SDS011;5708;50.660;6.778;2023-06-10T06:03:40;11.45;;;8.40;;
11305;SDS011;5708;50.660;6.778;2023-06-10T06:06:05;13.05;;;8.90;;
11305;SDS011;5708;50.660;6.778;2023-06-10T06:08:31;13.45;;;8.98;;
11305;SDS011;5708;50.660;6.778;2023-06-10T06:10:56;12.88;;;9.20;;
11305;SDS011;5708;50.660;6.778;2023-06-10T06:13:25;13.25;;;9.00;;
11305;SDS011;5708;50.660;6.778;2023-06-10T06:15:50;12.07;;;8.40;;
11305;SDS011;5708;50.660;6.778;2023-06-10T06:18:16;12.25;;;7.95;;
11305;SDS011;5708;50.660;6.778;2023-06-10T06:20:43;14.00;;;9.00;;
11305;SDS011;5708;50.660;6.778;2023-06-10T06:23:08;14.48;;;8.23;;
11305;SDS011;5708;50.660;6.778;2023-06-10T06:25:35;12.45;;;8.07;;
11305;SDS011;5708;50.660;6.778;2023-06-10T06:28:01;12.93;;;8.23;;
11305;SDS011;5708;50.660;6.778;2023-06-10T06:30:27;12.48;;;7.45;;
11305;SDS011;5708;50.660;6.778;2023-06-10T06:32:52;11.68;;;7.90;;
11305;SDS011;5708;50.660;6.778;2023-06-10T06:35:18;13.93;;;8.07;;
11305;SDS011;5708;50.660;6.778;2023-06-10T06:37:43;11.70;;;8.13;;
11305;SDS011;5708;50.660;6.778;2023-06-10T06:40:09;12.18;;;8.45;;
11305;SDS011;5708;50.660;6.778;2023-06-10T06:42:35;12.85;;;7.50;;
11305;SDS011;5708;50.660;6.778;2023-06-10T06:45:00;12.43;;;7.13;;
11305;SDS011;5708;50.660;6.778;2023-06-10T06:47:25;10.40;;;7.22;;
11305;SDS011;5708;50.660;6.778;2023-06-10T06:49:51;13.48;;;6.88;;
11305;SDS011;5708;50.660;6.778;2023-06-10T06:52:17;10.27;;;6.97;;
11305;SDS011;5708;50.660;6.778;2023-06-10T06:54:42;13.18;;;7.50;;
11305;SDS011;5708;50.660;6.778;2023-06-10T06:57:07;10.63;;;6.60;;
11305;SDS011;5708;50.660;6.778;2023-06-10T06:59:33;9.73;;;6.45;;
11305;SDS011;5708;50.660;6.778;2023-06-10T07:01:59;10.52;;;6.75;;
11305;SDS011;5708;50.660;6.778;2023-06-10T07:04:24;8.35;;;6.28;;
11305;SDS011;5708;50.660;6.778;2023-06-10T07:06:50;13.38;;;6.53;;
11305;SDS011;5708;50.660;6.778;2023-06-10T07:09:15;11.57;;;6.38;;
11305;SDS011;5708;50.660;6.778;2023-06-10T07:11:41;13.52;;;6.90;;
11305;SDS011;5708;50.660;6.778;2023-06-10T07:14:07;12.30;;;6.75;;
11305;SDS011;5708;50.660;6.778;2023-06-10T07:16:32;10.95;;;6.70;;
11305;SDS011;5708;50.660;6.778;2023-06-10T07:18:57;9.10;;;6.40;;
11305;SDS011;5708;50.660;6.778;2023-06-10T07:21:23;17.13;;;6.88;;
11305;SDS011;5708;50.660;6.778;2023-06-10T07:23:49;9.90;;;6.50;;
11305;SDS011;5708;50.660;6.778;2023-06-10T07:26:17;9.68;;;6.32;;
11305;SDS011;5708;50.660;6.778;2023-06-10T07:28:42;10.15;;;6.03;;
11305;SDS011;5708;50.660;6.778;2023-06-10T07:31:08;8.80;;;6.20;;
11305;SDS011;5708;50.660;6.778;2023-06-10T07:33:33;9.45;;;6.47;;
11305;SDS011;5708;50.660;6.778;2023-06-10T07:35:59;12.00;;;6.50;;
11305;SDS011;5708;50.660;6.778;2023-06-10T07:38:25;9.23;;;6.10;;
11305;SDS011;5708;50.660;6.778;2023-06-10T07:40:51;12.73;;;7.30;;
11305;SDS011;5708;50.660;6.778;2023-06-10T07:43:16;10.80;;;6.18;;
11305;SDS011;5708;50.660;6.778;2023-06-10T07:45:42;9.82;;;6.00;;
11305;SDS011;5708;50.660;6.778;2023-06-10T07:48:08;11.25;;;6.35;;
11305;SDS011;5708;50.660;6.778;2023-06-10T07:50:33;7.85;;;5.90;;
11305;SDS011;5708;50.660;6.778;2023-06-10T07:52:59;8.88;;;6.22;;
11305;SDS011;5708;50.660;6.778;2023-06-10T07:55:24;9.05;;;6.05;;
11305;SDS011;5708;50.660;6.778;2023-06-10T07:57:53;10.55;;;6.18;;
11305;SDS011;5708;50.660;6.778;2023-06-10T08:00:19;10.00;;;5.63;;
11305;SDS011;5708;50.660;6.778;2023-06-10T08:02:45;8.15;;;5.53;;
11305;SDS011;5708;50.660;6.778;2023-06-10T08:05:11;9.27;;;5.60;;
11305;SDS011;5708;50.660;6.778;2023-06-10T08:07:37;8.82;;;5.53;;
11305;SDS011;5708;50.660;6.778;2023-06-10T08:10:02;7.10;;;5.32;;
11305;SDS011;5708;50.660;6.778;2023-06-10T08:12:29;7.40;;;4.93;;
11305;SDS011;5708;50.660;6.778;2023-06-10T08:14:54;8.80;;;5.55;;
11305;SDS011;5708;50.660;6.778;2023-06-10T08:17:20;10.30;;;5.68;;
11305;SDS011;5708;50.660;6.778;2023-06-10T08:19:46;9.70;;;6.00;;
11305;SDS011;5708;50.660;6.778;2023-06-10T08:22:11;9.68;;;5.53;;
11305;SDS011;5708;50.660;6.778;2023-06-10T08:24:37;8.55;;;5.80;;
11305;SDS011;5708;50.660;6.778;2023-06-10T08:27:02;8.75;;;5.47;;
11305;SDS011;5708;50.660;6.778;2023-06-10T08:29:28;9.93;;;5.22;;
11305;SDS011;5708;50.660;6.778;2023-06-10T08:31:55;10.48;;;5.78;;
11305;SDS011;5708;50.660;6.778;2023-06-10T08:34:20;9.60;;;5.40;;
11305;SDS011;5708;50.660;6.778;2023-06-10T08:36:45;8.38;;;5.60;;
11305;SDS011;5708;50.660;6.778;2023-06-10T08:39:11;10.90;;;5.60;;
11305;SDS011;5708;50.660;6.778;2023-06-10T08:41:37;10.35;;;6.18;;
11305;SDS011;5708;50.660;6.778;2023-06-10T08:44:17;10.52;;;5.50;;
11305;SDS011;5708;50.660;6.778;2023-06-10T08:46:47;10.10;;;5.55;;
11305;SDS011;5708;50.660;6.778;2023-06-10T08:49:15;9.27;;;5.40;;
11305;SDS011;5708;50.660;6.778;2023-06-10T08:51:46;12.30;;;5.80;;
11305;SDS011;5708;50.660;6.778;2023-06-10T08:54:17;8.15;;;5.57;;
11305;SDS011;5708;50.660;6.778;2023-06-10T08:56:44;10.00;;;5.28;;
11305;SDS011;5708;50.660;6.778;2023-06-10T08:59:11;8.48;;;5.63;;
11305;SDS011;5708;50.660;6.778;2023-06-10T09:01:37;7.72;;;5.55;;
11305;SDS011;5708;50.660;6.778;2023-06-10T09:04:03;10.43;;;6.00;;
11305;SDS011;5708;50.660;6.778;2023-06-10T09:06:28;9.73;;;6.00;;
11305;SDS011;5708;50.660;6.778;2023-06-10T09:08:57;8.88;;;6.38;;
11305;SDS011;5708;50.660;6.778;2023-06-10T09:11:22;11.82;;;6.15;;
11305;SDS011;5708;50.660;6.778;2023-06-10T09:13:48;8.65;;;6.25;;
11305;SDS011;5708;50.660;6.778;2023-06-10T09:16:13;10.65;;;5.50;;
11305;SDS011;5708;50.660;6.778;2023-06-10T09:18:40;12.35;;;6.30;;
11305;SDS011;5708;50.660;6.778;2023-06-10T09:21:05;9.85;;;6.03;;
11305;SDS011;5708;50.660;6.778;2023-06-10T09:23:31;9.48;;;5.55;;
11305;SDS011;5708;50.660;6.778;2023-06-10T09:25:57;9.38;;;5.63;;
11305;SDS011;5708;50.660;6.778;2023-06-10T09:28:23;9.15;;;6.18;;
11305;SDS011;5708;50.660;6.778;2023-06-10T09:30:49;9.63;;;6.05;;
11305;SDS011;5708;50.660;6.778;2023-06-10T09:33:15;8.27;;;5.30;;
11305;SDS011;5708;50.660;6.778;2023-06-10T09:35:47;8.15;;;6.18;;
11305;SDS011;5708;50.660;6.778;2023-06-10T09:38:20;11.88;;;6.00;;
11305;SDS011;5708;50.660;6.778;2023-06-10T09:40:53;10.45;;;6.43;;
11305;SDS011;5708;50.660;6.778;2023-06-10T09:43:19;10.10;;;6.20;;
11305;SDS011;5708;50.660;6.778;2023-06-10T09:45:47;8.05;;;5.75;;
11305;SDS011;5708;50.660;6.778;2023-06-10T09:48:13;8.27;;;6.20;;
11305;SDS011;5708;50.660;6.778;2023-06-10T09:50:42;12.77;;;5.90;;
11305;SDS011;5708;50.660;6.778;2023-06-10T09:53:11;9.80;;;6.25;;
11305;SDS011;5708;50.660;6.778;2023-06-10T09:55:40;9.77;;;6.10;;
11305;SDS011;5708;50.660;6.778;2023-06-10T09:58:06;8.85;;;5.80;;
11305;SDS011;5708;50.660;6.778;2023-06-10T10:00:33;9.77;;;6.10;;
11305;SDS011;5708;50.660;6.778;2023-06-10T10:02:58;11.63;;;6.10;;
11305;SDS011;5708;50.660;6.778;2023-06-10T10:05:24;8.18;;;6.20;;
11305;SDS011;5708;50.660;6.778;2023-06-10T10:07:50;9.20;;;6.15;;
11305;SDS011;5708;50.660;6.778;2023-06-10T10:10:22;10.50;;;6.13;;
11305;SDS011;5708;50.660;6.778;2023-06-10T10:12:48;8.38;;;5.82;;
11305;SDS011;5708;50.660;6.778;2023-06-10T10:15:16;8.55;;;5.57;;
11305;SDS011;5708;50.660;6.778;2023-06-10T10:17:52;8.95;;;5.85;;
11305;SDS011;5708;50.660;6.778;2023-06-10T10:20:20;11.15;;;6.63;;
11305;SDS011;5708;50.660;6.778;2023-06-10T10:22:52;8.93;;;5.88;;
11305;SDS011;5708;50.660;6.778;2023-06-10T10:25:54;9.15;;;5.95;;
11305;SDS011;5708;50.660;6.778;2023-06-10T10:28:14;7.68;;;5.90;;
11305;SDS011;5708;50.660;6.778;2023-06-10T10:30:51;9.23;;;6.30;;
11305;SDS011;5708;50.660;6.778;2023-06-10T10:33:19;8.65;;;6.13;;
11305;SDS011;5708;50.660;6.778;2023-06-10T10:35:47;8.30;;;5.72;;
11305;SDS011;5708;50.660;6.778;2023-06-10T10:38:12;9.18;;;6.40;;
11305;SDS011;5708;50.660;6.778;2023-06-10T10:40:38;8.55;;;5.70;;
11305;SDS011;5708;50.660;6.778;2023-06-10T10:43:04;9.88;;;6.13;;
11305;SDS011;5708;50.660;6.778;2023-06-10T10:45:30;7.72;;;5.88;;
11305;SDS011;5708;50.660;6.778;2023-06-10T10:47:55;8.50;;;5.95;;
11305;SDS011;5708;50.660;6.778;2023-06-10T10:50:22;8.27;;;5.95;;
11305;SDS011;5708;50.660;6.778;2023-06-10T10:52:52;7.15;;;5.57;;
11305;SDS011;5708;50.660;6.778;2023-06-10T10:55:24;15.82;;;6.00;;
11305;SDS011;5708;50.660;6.778;2023-06-10T10:57:57;10.70;;;5.38;;
11305;SDS011;5708;50.660;6.778;2023-06-10T11:03:15;8.32;;;5.65;;
11305;SDS011;5708;50.660;6.778;2023-06-10T11:05:45;10.35;;;5.68;;
11305;SDS011;5708;50.660;6.778;2023-06-10T11:08:15;12.43;;;5.78;;
11305;SDS011;5708;50.660;6.778;2023-06-10T11:11:00;10.77;;;5.32;;
11305;SDS011;5708;50.660;6.778;2023-06-10T11:16:27;9.73;;;5.95;;
11305;SDS011;5708;50.660;6.778;2023-06-10T11:18:53;8.23;;;5.25;;
11305;SDS011;5708;50.660;6.778;2023-06-10T11:21:19;9.07;;;5.78;;
11305;SDS011;5708;50.660;6.778;2023-06-10T11:23:45;10.50;;;5.93;;
11305;SDS011;5708;50.660;6.778;2023-06-10T11:26:14;7.82;;;5.68;;
11305;SDS011;5708;50.660;6.778;2023-06-10T11:33:47;9.63;;;5.75;;
11305;SDS011;5708;50.660;6.778;2023-06-10T11:36:13;11.35;;;5.53;;
11305;SDS011;5708;50.660;6.778;2023-06-10T11:38:40;9.15;;;5.45;;
11305;SDS011;5708;50.660;6.778;2023-06-10T11:41:05;9.43;;;5.72;;
11305;SDS011;5708;50.660;6.778;2023-06-10T11:43:31;8.20;;;5.88;;
11305;SDS011;5708;50.660;6.778;2023-06-10T11:45:57;8.85;;;5.82;;
11305;SDS011;5708;50.660;6.778;2023-06-10T11:48:22;8.18;;;5.85;;
11305;SDS011;5708;50.660;6.778;2023-06-10T11:50:48;9.73;;;5.93;;
11305;SDS011;5708;50.660;6.778;2023-06-10T11:53:13;10.30;;;6.03;;
11305;SDS011;5708;50.660;6.778;2023-06-10T11:55:42;8.20;;;5.50;;
11305;SDS011;5708;50.660;6.778;2023-06-10T11:58:19;7.88;;;5.65;;
11305;SDS011;5708;50.660;6.778;2023-06-10T12:03:15;10.18;;;5.03;;
11305;SDS011;5708;50.660;6.778;2023-06-10T12:05:53;10.75;;;5.78;;
11305;SDS011;5708;50.660;6.778;2023-06-10T12:08:23;11.05;;;5.22;;
11305;SDS011;5708;50.660;6.778;2023-06-10T12:10:48;7.22;;;5.28;;
11305;SDS011;5708;50.660;6.778;2023-06-10T12:13:13;8.27;;;5.50;;
11305;SDS011;5708;50.660;6.778;2023-06-10T12:15:39;8.63;;;5.22;;
11305;SDS011;5708;50.660;6.778;2023-06-10T12:18:04;10.75;;;5.90;;
11305;SDS011;5708;50.660;6.778;2023-06-10T12:20:30;10.38;;;5.80;;
11305;SDS011;5708;50.660;6.778;2023-06-10T12:22:58;7.40;;;5.60;;
11305;SDS011;5708;50.660;6.778;2023-06-10T12:25:25;9.18;;;5.95;;
11305;SDS011;5708;50.660;6.778;2023-06-10T12:27:52;7.55;;;5.53;;
11305;SDS011;5708;50.660;6.778;2023-06-10T12:30:24;7.35;;;5.63;;
11305;SDS011;5708;50.660;6.778;2023-06-10T12:32:54;10.07;;;6.15;;
11305;SDS011;5708;50.660;6.778;2023-06-10T12:35:24;10.10;;;6.00;;
11305;SDS011;5708;50.660;6.778;2023-06-10T12:37:55;7.50;;;5.20;;
11305;SDS011;5708;50.660;6.778;2023-06-10T12:40:39;10.25;;;5.45;;
11305;SDS011;5708;50.660;6.778;2023-06-10T12:43:08;8.52;;;5.35;;
11305;SDS011;5708;50.660;6.778;2023-06-10T12:45:37;8.38;;;5.80;;
11305;SDS011;5708;50.660;6.778;2023-06-10T12:48:11;7.68;;;4.90;;
11305;SDS011;5708;50.660;6.778;2023-06-10T12:50:42;7.30;;;5.35;;
11305;SDS011;5708;50.660;6.778;2023-06-10T12:53:09;8.18;;;5.53;;
11305;SDS011;5708;50.660;6.778;2023-06-10T12:55:36;8.73;;;5.60;;
11305;SDS011;5708;50.660;6.778;2023-06-10T12:58:02;10.20;;;5.10;;
11305;SDS011;5708;50.660;6.778;2023-06-10T13:00:28;7.93;;;5.00;;
11305;SDS011;5708;50.660;6.778;2023-06-10T13:02:59;7.47;;;5.00;;
11305;SDS011;5708;50.660;6.778;2023-06-10T13:05:26;7.82;;;4.75;;
11305;SDS011;5708;50.660;6.778;2023-06-10T13:07:52;10.13;;;4.75;;
11305;SDS011;5708;50.660;6.778;2023-06-10T13:10:17;8.50;;;4.65;;
11305;SDS011;5708;50.660;6.778;2023-06-10T13:12:43;8.65;;;4.28;;
11305;SDS011;5708;50.660;6.778;2023-06-10T13:15:09;6.35;;;4.38;;
11305;SDS011;5708;50.660;6.778;2023-06-10T13:17:35;7.10;;;4.03;;
11305;SDS011;5708;50.660;6.778;2023-06-10T13:20:04;6.40;;;4.30;;
11305;SDS011;5708;50.660;6.778;2023-06-10T13:22:30;5.57;;;4.00;;
11305;SDS011;5708;50.660;6.778;2023-06-10T13:24:58;9.57;;;3.90;;
11305;SDS011;5708;50.660;6.778;2023-06-10T13:27:24;8.32;;;4.28;;
11305;SDS011;5708;50.660;6.778;2023-06-10T13:29:49;8.98;;;4.10;;
11305;SDS011;5708;50.660;6.778;2023-06-10T13:32:15;7.32;;;4.22;;
11305;SDS011;5708;50.660;6.778;2023-06-10T13:34:40;6.28;;;4.30;;
11305;SDS011;5708;50.660;6.778;2023-06-10T13:37:05;8.02;;;4.20;;
11305;SDS011;5708;50.660;6.778;2023-06-10T13:39:31;8.75;;;4.43;;
11305;SDS011;5708;50.660;6.778;2023-06-10T13:41:57;8.38;;;4.55;;
11305;SDS011;5708;50.660;6.778;2023-06-10T13:44:22;8.85;;;4.60;;
11305;SDS011;5708;50.660;6.778;2023-06-10T13:46:48;6.70;;;4.07;;
11305;SDS011;5708;50.660;6.778;2023-06-10T13:49:13;7.85;;;4.35;;
11305;SDS011;5708;50.660;6.778;2023-06-10T13:51:39;7.28;;;4.78;;
11305;SDS011;5708;50.660;6.778;2023-06-10T13:54:04;6.95;;;4.50;;
11305;SDS011;5708;50.660;6.778;2023-06-10T13:56:29;11.05;;;4.20;;
11305;SDS011;5708;50.660;6.778;2023-06-10T13:58:55;8.45;;;4.30;;
11305;SDS011;5708;50.660;6.778;2023-06-10T14:01:21;9.73;;;4.25;;
11305;SDS011;5708;50.660;6.778;2023-06-10T14:03:46;9.60;;;4.03;;
11305;SDS011;5708;50.660;6.778;2023-06-10T14:06:11;7.85;;;4.07;;
11305;SDS011;5708;50.660;6.778;2023-06-10T14:08:43;8.18;;;3.90;;
11305;SDS011;5708;50.660;6.778;2023-06-10T14:11:09;5.55;;;4.07;;
11305;SDS011;5708;50.660;6.778;2023-06-10T14:13:34;9.23;;;4.47;;
11305;SDS011;5708;50.660;6.778;2023-06-10T14:16:00;6.90;;;4.15;;
11305;SDS011;5708;50.660;6.778;2023-06-10T14:18:27;7.55;;;4.00;;
11305;SDS011;5708;50.660;6.778;2023-06-10T14:20:53;7.32;;;3.97;;
11305;SDS011;5708;50.660;6.778;2023-06-10T14:23:18;9.68;;;4.35;;
11305;SDS011;5708;50.660;6.778;2023-06-10T14:25:44;7.22;;;4.05;;
11305;SDS011;5708;50.660;6.778;2023-06-10T14:28:09;9.88;;;4.63;;
11305;SDS011;5708;50.660;6.778;2023-06-10T14:30:35;9.80;;;3.92;;
11305;SDS011;5708;50.660;6.778;2023-06-10T14:33:00;9.52;;;4.15;;
11305;SDS011;5708;50.660;6.778;2023-06-10T14:35:25;8.73;;;3.70;;
11305;SDS011;5708;50.660;6.778;2023-06-10T14:37:51;6.15;;;3.92;;
11305;SDS011;5708;50.660;6.778;2023-06-10T14:40:16;9.27;;;4.47;;
11305;SDS011;5708;50.660;6.778;2023-06-10T14:42:42;7.57;;;4.03;;
11305;SDS011;5708;50.660;6.778;2023-06-10T14:45:07;8.20;;;3.90;;
11305;SDS011;5708;50.660;6.778;2023-06-10T14:47:33;6.55;;;4.00;;
11305;SDS011;5708;50.660;6.778;2023-06-10T14:49:59;7.05;;;3.55;;
11305;SDS011;5708;50.660;6.778;2023-06-10T14:52:24;6.90;;;4.18;;
11305;SDS011;5708;50.660;6.778;2023-06-10T14:54:50;6.90;;;3.45;;
11305;SDS011;5708;50.660;6.778;2023-06-10T14:57:15;7.55;;;3.92;;
11305;SDS011;5708;50.660;6.778;2023-06-10T14:59:41;8.55;;;4.38;;
11305;SDS011;5708;50.660;6.778;2023-06-10T15:02:06;7.43;;;4.20;;
11305;SDS011;5708;50.660;6.778;2023-06-10T15:04:31;7.78;;;4.18;;
11305;SDS011;5708;50.660;6.778;2023-06-10T15:06:57;7.82;;;3.67;;
11305;SDS011;5708;50.660;6.778;2023-06-10T15:09:26;7.32;;;3.97;;
11305;SDS011;5708;50.660;6.778;2023-06-10T15:11:51;6.05;;;3.83;;